CYGX

Gillam Airport

Gillam, Manitoba, Canada
METAR CYGX 190935Z 32011KT 250V340 10SM -SHSN OVC011 04/02 A2996 RMK SC8 CVCTV CLD EMBD SLP156
Observed Flight Rules
Sep-19 @ 09:35 UTC (14 minutes ago) Marginal Visual Flight Rules
Wind Visibility Clouds Conditions
320° at 11 knots 10 miles
  • Overcast at 1,100' AGL
  • Light Snow
Temperatures Readings
Current 4°C / 39°F
Dewpoint 2°C / 36°F
Humidity 87%
Altimeter 29.96" Hg
Pressure 1015.6 hPa
Elevation 145
METAR CYGX 190935Z 32011KT 250V340 10SM -SHSN OVC011 04/02 A2996 RMK SC8 CVCTV CLD EMBD SLP156
Observed Flight Rules
Sep-19 @ 09:35 UTC
(14 minutes ago)
MVFR
Wind Visibility
320° at 11 knots 10 miles
Clouds
  • Overcast at 1,100' AGL
Conditions
  • Light Snow
Temperature Dewpoint
4°C / 39°F 2°C / 36°F
Humidity Altimeter Pressure
87% 29.96" Hg 1015.6 hPa